Four States, West Virginia
Current Conditions -  °F | °C
As of 3:53 PM on Friday 19 Dec 2014 (Local Time) from KCKB Reporting Station
Overcast Overcast  
Wind Chill: 24°   Ceiling: 2200
Heat Index: 30°   Visibility: 10mi
Dew Point: 23°   Wind: 6mph
Humidity: 75%   Direction: 300°WNW
Pressure: 30.23"   Gusts: NA
Location:  39.48°N, 80.31°W
Report Text: KCKB 192053Z 30005KT 10SM OVC022 M01/M05 A3023 RMK AO2 SLP245 T10111050 51010
Loading
Personal Weather Stations






























Interactive Weather Map New forecast layout! Learn more

10-Day Weather Forecast

Advertisements
Track Severe Weather on mobile